.
WxDataArchive / Data Records for 2011-01-06
2011-01-05 January 2011 2011-01-07

Data Records for Thursday, 06 January 2011

Time	Temp	Chill	HIndex	Humid	Dewpt	 Wind 	HiWind	WindDir	Rain 	Barom 
-----	----	-----	------	-----	-----	------	------	-------	-----	----- 
00:00	23.2	23.2	23.2	75	16.5	0	0	---	0.00	29.812 
00:05	23.3	23.3	23.3	75	16.6	0	0	---	0.00	29.812 
00:10	23.6	23.6	23.6	76	17.2	0	0	---	0.00	29.812 
00:15	23.9	23.9	23.9	76	17.5	0	3	248	0.00	29.803 
00:20	24.4	24.4	24.4	76	17.9	0	1	248	0.00	29.803 
00:25	24.7	24.7	24.7	75	17.9	0	2	248	0.00	29.803 
00:30	25.0	25.0	25.0	74	17.9	0	3	248	0.00	29.797 
00:35	25.1	25.1	25.1	74	18.0	0	2	248	0.00	29.797 
00:40	25.1	25.1	25.1	73	17.7	0	1	248	0.00	29.797 
00:45	25.3	25.3	25.3	73	17.9	0	1	248	0.00	29.788 
00:50	25.3	25.3	25.3	73	17.9	0	2	248	0.00	29.788 
00:55	25.4	25.4	25.4	73	18.0	1	3	248	0.00	29.788 
01:00	25.7	25.7	25.7	73	18.3	1	3	248	0.00	29.784 
01:05	25.8	25.8	25.8	74	18.7	1	3	248	0.00	29.784 
01:10	25.8	25.8	25.8	75	19.0	1	3	248	0.00	29.784 
01:15	26.0	26.0	26.0	76	19.5	0	2	248	0.00	29.773 
01:20	26.0	26.0	26.0	77	19.8	0	2	248	0.00	29.773 
01:25	26.1	26.1	26.1	77	19.9	1	4	248	0.00	29.773 
01:30	26.3	26.3	26.3	77	20.1	1	2	248	0.00	29.766 
01:35	26.3	26.3	26.3	78	20.4	1	3	248	0.00	29.766 
01:40	26.4	26.4	26.4	79	20.8	1	3	248	0.00	29.766 
01:45	26.4	26.4	26.4	80	21.1	1	4	248	0.00	29.761 
01:50	26.4	26.4	26.4	80	21.1	1	5	248	0.00	29.761 
01:55	26.4	26.4	26.4	81	21.4	1	4	248	0.00	29.761 
02:00	26.3	26.3	26.3	81	21.3	1	3	248	0.00	29.754 
02:05	26.3	26.3	26.3	81	21.3	1	3	248	0.00	29.754 
02:10	26.3	26.3	26.3	82	21.6	1	3	225	0.00	29.754 
02:15	26.3	26.3	26.3	82	21.6	1	3	225	0.00	29.753 
02:20	26.3	26.3	26.3	82	21.6	1	3	248	0.00	29.753 
02:25	26.3	26.3	26.3	82	21.6	1	2	248	0.00	29.753 
02:30	26.3	26.3	26.3	82	21.6	0	2	248	0.00	29.756 
02:35	26.4	26.4	26.4	83	22.0	0	2	248	0.00	29.756 
02:40	26.4	26.4	26.4	83	22.0	0	3	248	0.00	29.756 
02:45	26.6	26.6	26.6	83	22.1	2	5	248	0.00	29.749 
02:50	26.7	26.7	26.7	83	22.2	1	4	248	0.00	29.749 
02:55	26.9	26.9	26.9	82	22.2	2	6	270	0.00	29.749 
03:00	27.0	27.0	27.0	82	22.3	1	4	248	0.00	29.745 
03:05	27.0	27.0	27.0	82	22.3	0	3	248	0.00	29.745 
03:10	27.2	27.2	27.2	82	22.4	1	4	248	0.00	29.745 
03:15	27.2	27.2	27.2	82	22.4	1	5	248	0.00	29.738 
03:20	27.3	27.3	27.3	82	22.5	0	3	248	0.00	29.738 
03:25	27.3	27.3	27.3	82	22.5	0	2	248	0.00	29.738 
03:30	27.3	27.3	27.3	82	22.5	1	4	248	0.00	29.735 
03:35	27.5	27.5	27.5	82	22.7	1	5	248	0.00	29.735 
03:40	27.5	27.5	27.5	82	22.7	1	4	248	0.00	29.735 
03:45	27.6	27.6	27.6	82	22.8	1	4	248	0.00	29.730 
03:50	27.6	27.6	27.6	82	22.8	1	2	248	0.00	29.730 
03:55	27.6	27.6	27.6	82	22.8	1	3	248	0.00	29.730 
04:00	27.8	27.8	27.8	82	23.0	0	3	248	0.00	29.717 
04:05	27.8	27.8	27.8	82	23.0	0	2	248	0.00	29.717 
04:10	27.8	27.8	27.8	82	23.0	0	2	248	0.00	29.717 
04:15	27.9	27.9	27.9	82	23.1	1	3	248	0.00	29.714 
04:20	27.9	27.9	27.9	82	23.1	1	3	248	0.00	29.714 
04:25	27.9	27.9	27.9	82	23.1	0	1	248	0.00	29.714 
04:30	27.9	27.9	27.9	82	23.1	0	2	248	0.00	29.704 
04:35	28.1	28.1	28.1	83	23.6	1	3	248	0.00	29.704 
04:40	28.1	28.1	28.1	83	23.6	1	4	248	0.00	29.704 
04:45	28.1	28.1	28.1	83	23.6	0	4	248	0.00	29.700 
04:50	28.2	28.2	28.2	83	23.7	1	2	248	0.00	29.700 
04:55	28.2	28.2	28.2	83	23.7	0	2	248	0.00	29.700 
05:00	28.4	28.4	28.4	83	23.9	1	3	248	0.00	29.696 
05:05	28.4	28.4	28.4	83	23.9	1	4	248	0.00	29.696 
05:10	28.5	28.5	28.5	83	24.0	0	2	248	0.00	29.696 
05:15	28.7	28.7	28.7	83	24.2	0	2	248	0.00	29.688 
05:20	28.7	28.7	28.7	83	24.2	1	3	248	0.00	29.688 
05:25	28.8	28.8	28.8	83	24.3	1	4	248	0.00	29.688 
05:30	28.8	28.8	28.8	83	24.3	1	2	248	0.00	29.684 
05:35	29.0	29.0	29.0	83	24.5	1	4	248	0.00	29.684 
05:40	29.0	29.0	29.0	83	24.5	1	4	225	0.00	29.684 
05:45	29.0	29.0	29.0	83	24.5	1	5	248	0.00	29.683 
05:50	29.0	29.0	29.0	82	24.2	0	2	248	0.00	29.683 
05:55	29.0	29.0	29.0	82	24.2	0	2	248	0.00	29.683 
06:00	29.1	29.1	29.1	82	24.3	1	2	248	0.00	29.681 
06:05	29.1	29.1	29.1	82	24.3	1	4	248	0.00	29.681 
06:10	29.1	29.1	29.1	82	24.3	1	3	248	0.00	29.681 
06:15	29.1	29.1	29.1	82	24.3	1	4	248	0.00	29.680 
06:20	29.1	29.1	29.1	82	24.3	1	3	248	0.00	29.680 
06:25	29.1	29.1	29.1	82	24.3	0	3	248	0.00	29.680 
06:30	29.1	29.1	29.1	82	24.3	0	3	248	0.00	29.676 
06:35	29.1	29.1	29.1	82	24.3	1	3	248	0.00	29.676 
06:40	29.1	29.1	29.1	82	24.3	1	2	248	0.00	29.676 
06:45	29.1	29.1	29.1	82	24.3	1	3	248	0.00	29.674 
06:50	29.1	29.1	29.1	82	24.3	1	4	225	0.00	29.674 
06:55	29.1	29.1	29.1	82	24.3	1	3	225	0.00	29.674 
07:00	29.1	29.1	29.1	82	24.3	2	5	248	0.00	29.676 
07:05	29.3	29.3	29.3	82	24.5	1	4	225	0.00	29.676 
07:10	29.3	29.3	29.3	82	24.5	1	2	248	0.00	29.676 
07:15	29.3	29.3	29.3	82	24.5	1	4	248	0.00	29.670 
07:20	29.3	29.3	29.3	82	24.5	1	3	248	0.00	29.670 
07:25	29.3	29.3	29.3	82	24.5	2	4	248	0.00	29.670 
07:30	29.3	29.3	29.3	82	24.5	2	6	248	0.00	29.670 
07:35	29.3	29.3	29.3	82	24.5	1	4	248	0.00	29.670 
07:40	29.3	29.3	29.3	82	24.5	0	4	248	0.00	29.670 
07:45	29.3	29.3	29.3	82	24.5	1	3	225	0.00	29.667 
07:50	29.3	29.3	29.3	82	24.5	1	4	225	0.00	29.667 
07:55	29.3	29.3	29.3	82	24.5	1	3	248	0.00	29.667 
08:00	29.3	29.3	29.3	82	24.5	0	2	248	0.00	29.660 
08:05	29.3	29.3	29.3	82	24.5	1	4	270	0.00	29.660 
08:10	29.3	29.3	29.3	82	24.5	1	4	270	0.00	29.660 
08:15	29.3	29.3	29.3	82	24.5	1	4	248	0.00	29.659 
08:20	29.3	29.3	29.3	82	24.5	1	4	248	0.00	29.659 
08:25	29.3	29.3	29.3	82	24.5	1	4	248	0.00	29.659 
08:30	29.3	29.3	29.3	82	24.5	1	4	248	0.00	29.661 
08:35	29.3	29.3	29.3	82	24.5	1	3	248	0.00	29.661 
08:40	29.3	29.3	29.3	82	24.5	1	3	248	0.00	29.661 
08:45	29.3	29.3	29.3	82	24.5	1	3	248	0.00	29.662 
08:50	29.4	29.4	29.4	82	24.6	1	2	248	0.00	29.662 
08:55	29.4	29.4	29.4	82	24.6	1	3	248	0.00	29.662 
09:00	29.4	29.4	29.4	82	24.6	1	3	270	0.00	29.664 
09:05	29.4	29.4	29.4	82	24.6	1	4	248	0.00	29.664 
09:10	29.4	29.4	29.4	82	24.6	1	3	270	0.00	29.664 
09:15	29.4	29.4	29.4	82	24.6	1	3	248	0.00	29.665 
09:20	29.4	29.4	29.4	82	24.6	2	4	248	0.00	29.665 
09:25	29.3	29.3	29.3	82	24.5	1	3	248	0.00	29.665 
09:30	29.3	29.3	29.3	82	24.5	1	3	248	0.00	29.663 
09:35	29.4	29.4	29.4	82	24.6	1	3	248	0.00	29.663 
09:40	29.4	29.4	29.4	82	24.6	0	3	248	0.00	29.663 
09:45	29.4	29.4	29.4	82	24.6	1	3	248	0.00	29.664 
09:50	29.4	29.4	29.4	83	24.9	1	4	248	0.00	29.664 
09:55	29.4	29.4	29.4	82	24.6	1	2	248	0.00	29.664 
10:00	29.4	29.4	29.4	82	24.6	0	1	248	0.00	29.661 
10:05	29.4	29.4	29.4	82	24.6	1	3	248	0.00	29.661 
10:10	29.4	29.4	29.4	82	24.6	1	2	248	0.00	29.661 
10:15	29.4	29.4	29.4	82	24.6	1	3	248	0.00	29.656 
10:20	29.4	29.4	29.4	82	24.6	1	3	248	0.00	29.656 
10:25	29.4	29.4	29.4	82	24.6	1	2	248	0.00	29.656 
10:30	29.4	29.4	29.4	81	24.3	1	2	248	0.00	29.654 
10:35	29.4	29.4	29.4	81	24.3	1	3	248	0.00	29.654 
10:40	29.4	29.4	29.4	81	24.3	1	3	248	0.00	29.654 
10:45	29.4	29.4	29.4	81	24.3	1	3	248	0.00	29.651 
10:50	29.3	29.3	29.3	81	24.2	1	4	248	0.00	29.651 
10:55	29.3	29.3	29.3	81	24.2	1	4	248	0.00	29.651 
11:00	29.3	29.3	29.3	81	24.2	0	2	270	0.00	29.639 
11:05	29.3	29.3	29.3	81	24.2	1	3	270	0.00	29.639 
11:10	29.3	29.3	29.3	81	24.2	1	2	248	0.00	29.639 
11:15	29.3	29.3	29.3	81	24.2	1	3	248	0.00	29.638 
11:20	29.1	29.1	29.1	80	23.7	1	3	248	0.00	29.638 
11:25	29.1	29.1	29.1	80	23.7	1	3	248	0.00	29.638 
11:30	29.1	29.1	29.1	80	23.7	1	3	270	0.00	29.629 
11:35	29.1	29.1	29.1	80	23.7	1	2	270	0.00	29.629 
11:40	29.1	29.1	29.1	80	23.7	0	2	338	0.00	29.629 
11:45	29.1	29.1	29.1	80	23.7	0	2	338	0.00	29.625 
11:50	29.3	29.3	29.3	81	24.2	1	3	270	0.00	29.625 
11:55	29.1	29.1	29.1	80	23.7	1	4	248	0.00	29.625 
12:00	29.1	29.1	29.1	80	23.7	1	3	248	0.00	29.623 
12:05	29.1	29.1	29.1	79	23.4	1	3	248	0.00	29.623 
12:10	29.0	29.0	29.0	79	23.3	1	3	248	0.00	29.623 
12:15	29.0	29.0	29.0	79	23.3	1	4	248	0.00	29.615 
12:20	29.0	29.0	29.0	79	23.3	1	4	292	0.00	29.615 
12:25	28.8	28.8	28.8	78	22.8	2	4	292	0.00	29.615 
12:30	28.5	28.5	28.5	79	22.8	2	5	248	0.00	29.607 
12:35	28.5	28.5	28.5	80	23.1	1	4	292	0.00	29.607 
12:40	28.4	28.4	28.4	80	23.0	2	4	270	0.00	29.607 
12:45	28.2	28.2	28.2	81	23.1	2	4	270	0.00	29.594 
12:50	28.2	28.2	28.2	82	23.4	1	3	315	0.00	29.594 
12:55	28.1	28.1	28.1	82	23.3	2	4	315	0.00	29.594 
13:00	27.9	27.9	27.9	83	23.4	1	3	270	0.00	29.591 
13:05	27.9	27.9	27.9	84	23.7	2	3	270	0.00	29.591 
13:10	27.8	27.8	27.8	84	23.6	1	3	248	0.00	29.591 
13:15	27.8	27.8	27.8	84	23.6	1	3	315	0.00	29.577 
13:20	27.8	27.8	27.8	85	23.9	1	4	292	0.00	29.577 
13:25	27.8	27.8	27.8	85	23.9	2	4	248	0.00	29.577 
13:30	27.8	27.8	27.8	85	23.9	1	3	248	0.00	29.576 
13:35	27.8	27.8	27.8	86	24.2	2	6	248	0.00	29.576 
13:40	27.2	27.2	27.2	85	23.3	2	6	270	0.00	29.576 
13:45	26.7	26.7	26.7	85	22.8	2	6	270	0.00	29.578 
13:50	26.4	26.4	26.4	85	22.5	2	5	338	0.00	29.578 
13:55	26.4	26.4	26.4	86	22.8	2	4	270	0.00	29.578 
14:00	26.4	26.4	26.4	86	22.8	1	4	315	0.00	29.576 
14:05	26.6	26.6	26.6	86	23.0	1	5	248	0.00	29.576 
14:10	26.6	26.6	26.6	86	23.0	1	3	270	0.00	29.576 
14:15	26.4	26.4	26.4	86	22.8	2	7	270	0.00	29.577 
14:20	26.1	26.1	26.1	86	22.5	1	4	338	0.00	29.577 
14:25	26.1	26.1	26.1	86	22.5	1	2	338	0.00	29.577 
14:30	26.4	26.4	26.4	86	22.8	1	5	338	0.00	29.576 
14:35	26.6	26.6	26.6	87	23.3	1	4	248	0.00	29.576 
14:40	26.7	26.7	26.7	86	23.1	2	5	248	0.00	29.576 
14:45	26.9	26.9	26.9	86	23.3	2	5	270	0.00	29.574 
14:50	26.7	26.7	26.7	84	22.5	2	4	270	0.00	29.574 
14:55	26.6	26.6	26.6	83	22.1	2	4	315	0.00	29.574 
15:00	26.7	26.7	26.7	83	22.2	2	4	270	0.00	29.575 
15:05	26.7	26.7	26.7	83	22.2	1	5	292	0.00	29.575 
15:10	26.7	26.7	26.7	83	22.2	3	6	270	0.00	29.575 
15:15	26.9	26.9	26.9	82	22.2	2	4	270	0.00	29.575 
15:20	26.9	26.9	26.9	81	21.9	1	4	338	0.00	29.575 
15:25	26.9	26.9	26.9	80	21.6	1	3	248	0.00	29.575 
15:30	26.9	26.9	26.9	80	21.6	1	4	270	0.00	29.581 
15:35	26.7	26.7	26.7	80	21.4	2	6	270	0.00	29.581 
15:40	26.4	26.4	26.4	80	21.1	2	5	270	0.00	29.581 
15:45	26.6	26.6	26.6	80	21.3	2	5	248	0.00	29.583 
15:50	26.4	26.4	26.4	79	20.8	2	4	315	0.00	29.583 
15:55	26.4	26.4	26.4	78	20.5	2	4	270	0.00	29.583 
16:00	26.6	26.6	26.6	78	20.7	2	6	315	0.00	29.583 
16:05	26.4	26.4	26.4	78	20.5	3	6	248	0.00	29.583 
16:10	26.3	21.5	26.3	78	20.4	4	7	270	0.00	29.583 
16:15	26.3	26.3	26.3	79	20.7	3	5	270	0.00	29.589 
16:20	26.0	26.0	26.0	80	20.7	3	7	270	0.00	29.589 
16:25	26.0	26.0	26.0	80	20.7	3	6	270	0.00	29.589 
16:30	25.8	25.8	25.8	81	20.8	2	5	270	0.00	29.586 
16:35	25.8	25.8	25.8	81	20.8	2	4	248	0.00	29.586 
16:40	25.8	25.8	25.8	81	20.8	2	4	248	0.00	29.586 
16:45	25.8	25.8	25.8	81	20.8	2	5	270	0.00	29.586 
16:50	25.8	25.8	25.8	80	20.5	3	7	270	0.00	29.586 
16:55	25.7	25.7	25.7	80	20.4	3	5	270	0.00	29.586 
17:00	25.7	25.7	25.7	79	20.1	2	4	270	0.00	29.588 
17:05	25.6	25.6	25.6	78	19.7	2	4	270	0.00	29.588 
17:10	25.6	25.6	25.6	77	19.4	2	6	270	0.00	29.588 
17:15	25.4	25.4	25.4	77	19.2	2	4	315	0.00	29.590 
17:20	25.1	25.1	25.1	78	19.2	2	6	315	0.00	29.590 
17:25	25.0	25.0	25.0	78	19.1	2	5	248	0.00	29.590 
17:30	24.8	24.8	24.8	79	19.2	2	4	248	0.00	29.597 
17:35	24.7	24.7	24.7	80	19.4	2	5	270	0.00	29.597 
17:40	24.5	24.5	24.5	80	19.2	3	6	270	0.00	29.597 
17:45	24.4	24.4	24.4	80	19.1	2	5	270	0.00	29.603 
17:50	24.1	24.1	24.1	79	18.5	2	5	248	0.00	29.603 
17:55	24.1	24.1	24.1	78	18.3	2	4	315	0.00	29.603 
18:00	23.9	23.9	23.9	78	18.1	2	5	270	0.00	29.604 
18:05	23.8	23.8	23.8	77	17.7	2	5	315	0.00	29.604 
18:10	23.6	23.6	23.6	76	17.2	2	6	270	0.00	29.604 
18:15	23.5	23.5	23.5	75	16.8	1	3	248	0.00	29.603 
18:20	23.3	23.3	23.3	74	16.3	2	5	248	0.00	29.603 
18:25	23.3	23.3	23.3	73	15.9	2	5	270	0.00	29.603 
18:30	23.3	23.3	23.3	72	15.6	2	5	270	0.00	29.608 
18:35	23.3	23.3	23.3	71	15.3	2	4	270	0.00	29.608 
18:40	23.2	23.2	23.2	70	14.9	3	6	292	0.00	29.608 
18:45	23.2	23.2	23.2	69	14.6	3	5	270	0.00	29.610 
18:50	23.0	23.0	23.0	69	14.4	2	4	270	0.00	29.610 
18:55	22.9	22.9	22.9	69	14.3	2	5	270	0.00	29.610 
19:00	22.7	22.7	22.7	70	14.4	3	6	292	0.00	29.612 
19:05	22.9	22.9	22.9	70	14.6	3	6	270	0.00	29.612 
19:10	22.9	22.9	22.9	70	14.6	2	4	248	0.00	29.612 
19:15	22.9	22.9	22.9	71	14.9	1	5	292	0.00	29.613 
19:20	22.9	22.9	22.9	71	14.9	2	4	270	0.00	29.613 
19:25	22.9	22.9	22.9	71	14.9	2	4	270	0.00	29.613 
19:30	22.7	22.7	22.7	71	14.7	2	5	270	0.00	29.616 
19:35	22.7	22.7	22.7	72	15.1	1	3	270	0.00	29.616 
19:40	22.7	22.7	22.7	72	15.1	2	4	248	0.00	29.616 
19:45	22.9	22.9	22.9	72	15.2	2	3	248	0.00	29.612 
19:50	22.9	22.9	22.9	72	15.2	1	2	248	0.00	29.612 
19:55	22.9	22.9	22.9	72	15.2	2	4	248	0.00	29.612 
20:00	23.0	23.0	23.0	72	15.3	2	4	270	0.00	29.610 
20:05	23.0	23.0	23.0	72	15.3	2	4	270	0.00	29.610 
20:10	23.0	23.0	23.0	71	15.0	2	4	270	0.00	29.610 
20:15	23.0	23.0	23.0	70	14.7	2	3	248	0.00	29.610 
20:20	23.0	23.0	23.0	70	14.7	2	4	248	0.00	29.610 
20:25	22.9	22.9	22.9	70	14.6	2	4	248	0.00	29.610 
20:30	23.0	23.0	23.0	68	14.0	3	7	270	0.00	29.607 
20:35	23.0	23.0	23.0	68	14.0	2	4	270	0.00	29.607 
20:40	22.9	22.9	22.9	68	13.9	1	4	270	0.00	29.607 
20:45	22.7	22.7	22.7	68	13.8	2	4	270	0.00	29.600 
20:50	22.5	22.5	22.5	69	13.9	2	4	248	0.00	29.600 
20:55	22.5	22.5	22.5	69	13.9	2	4	248	0.00	29.600 
21:00	22.4	22.4	22.4	69	13.8	1	3	248	0.00	29.602 
21:05	22.4	22.4	22.4	69	13.8	2	4	248	0.00	29.602 
21:10	22.4	22.4	22.4	69	13.8	2	4	248	0.00	29.602 
21:15	22.4	22.4	22.4	68	13.5	3	7	248	0.00	29.596 
21:20	22.5	22.5	22.5	67	13.2	2	4	292	0.00	29.596 
21:25	22.5	22.5	22.5	67	13.2	2	6	270	0.00	29.596 
21:30	22.5	22.5	22.5	66	12.9	2	6	248	0.00	29.593 
21:35	22.5	22.5	22.5	66	12.9	3	6	270	0.00	29.593 
21:40	22.5	22.5	22.5	68	13.6	2	4	248	0.00	29.593 
21:45	22.4	22.4	22.4	70	14.1	2	9	248	0.00	29.593 
21:50	22.2	22.2	22.2	70	13.9	2	5	248	0.00	29.593 
21:55	22.1	22.1	22.1	70	13.8	2	5	248	0.00	29.593 
22:00	21.9	21.9	21.9	69	13.3	2	3	248	0.00	29.593 
22:05	21.9	21.9	21.9	68	13.0	2	5	270	0.00	29.593 
22:10	21.9	21.9	21.9	68	13.0	2	4	270	0.00	29.593 
22:15	21.8	21.8	21.8	68	12.9	2	4	248	0.00	29.585 
22:20	21.8	21.8	21.8	68	12.9	2	4	270	0.00	29.585 
22:25	21.8	21.8	21.8	68	12.9	1	3	270	0.00	29.585 
22:30	21.6	21.6	21.6	68	12.7	1	3	270	0.00	29.579 
22:35	21.6	21.6	21.6	68	12.7	1	4	338	0.00	29.579 
22:40	21.6	21.6	21.6	69	13.0	2	4	248	0.00	29.579 
22:45	21.6	21.6	21.6	69	13.0	1	2	248	0.00	29.577 
22:50	21.4	21.4	21.4	69	12.8	1	3	248	0.00	29.577 
22:55	21.4	21.4	21.4	69	12.8	1	2	248	0.00	29.577 
23:00	21.4	21.4	21.4	70	13.2	1	2	248	0.00	29.576 
23:05	21.4	21.4	21.4	70	13.2	1	3	248	0.00	29.576 
23:10	21.4	21.4	21.4	70	13.2	1	2	248	0.00	29.576 
23:15	21.4	21.4	21.4	70	13.2	1	2	248	0.00	29.568 
23:20	21.3	21.3	21.3	70	13.1	1	2	248	0.00	29.568 
23:25	21.3	21.3	21.3	70	13.1	1	3	248	0.00	29.568 
23:30	21.3	21.3	21.3	70	13.1	1	3	248	0.00	29.569 
23:35	21.1	21.1	21.1	70	12.9	1	3	248	0.00	29.569 
23:40	21.1	21.1	21.1	70	12.9	1	3	248	0.00	29.569 
23:45	21.0	21.0	21.0	69	12.5	1	4	248	0.00	29.569 
23:50	20.8	20.8	20.8	69	12.3	1	6	248	0.00	29.569 
23:55	20.6	20.6	20.6	69	12.1	1	3	270	0.00	29.569 

CoCoRaHS
IN-AL-39
A2 Web Hosting
Creative Commons License
GoDaddy
search engine by freefind advanced

loaded 2018-11-17 19:00:09 • last modified 2010-11-18 10:43:29
Privacy PolicyDisclaimer
• wx.awcolley.com is powered by PmWiki v.2002016 •
• all content (unless otherwise noted) © 2018 A W Colley